createdAt,value
2022-10-06T00:02:21.153Z,1.00
2022-10-06T00:07:23.984Z,1.00
2022-10-06T00:12:26.780Z,1.00
2022-10-06T00:17:30.869Z,1.00
2022-10-06T00:22:36.866Z,1.00
2022-10-06T00:27:41.807Z,1.00
2022-10-06T00:32:51.798Z,1.00
2022-10-06T00:37:55.151Z,1.00
2022-10-06T00:42:59.392Z,1.00
2022-10-06T00:48:06.459Z,1.00
2022-10-06T00:53:09.438Z,1.00
2022-10-06T00:58:13.165Z,1.00
2022-10-06T01:03:21.498Z,1.00
2022-10-06T01:08:25.966Z,1.00
2022-10-06T01:13:30.152Z,1.00
2022-10-06T01:18:35.935Z,49.10
2022-10-06T01:23:41.260Z,99.90
2022-10-06T01:28:44.051Z,99.90
2022-10-06T01:33:51.414Z,99.90
2022-10-06T01:38:55.486Z,99.90
2022-10-06T01:43:58.232Z,99.90
2022-10-06T01:49:00.976Z,99.90
2022-10-06T01:54:05.197Z,99.90
2022-10-06T01:59:07.937Z,99.90
2022-10-06T02:04:10.761Z,99.90
2022-10-06T02:09:14.901Z,99.90
2022-10-06T02:14:18.050Z,99.90
2022-10-06T02:19:20.790Z,99.90
2022-10-06T02:24:25.066Z,99.90
2022-10-06T02:29:27.795Z,99.90
2022-10-06T02:34:30.531Z,99.90
2022-10-06T02:39:34.564Z,99.90
2022-10-06T02:44:37.294Z,99.90
2022-10-06T02:49:40.013Z,99.90
2022-10-06T02:54:44.346Z,99.90
2022-10-06T02:59:47.086Z,99.90
2022-10-06T03:04:49.841Z,99.90
2022-10-06T03:09:53.948Z,99.90
2022-10-06T03:14:56.650Z,99.90
2022-10-06T03:19:59.439Z,99.90
2022-10-06T03:25:03.948Z,99.90
2022-10-06T03:30:07.867Z,99.90
2022-10-06T03:35:10.918Z,99.90
2022-10-06T03:40:15.218Z,99.90
2022-10-06T03:45:17.968Z,99.90
2022-10-06T03:50:20.757Z,99.90
2022-10-06T03:55:24.931Z,99.90
2022-10-06T04:00:27.909Z,99.90
2022-10-06T04:05:30.632Z,99.90
2022-10-06T04:10:35.635Z,99.90
2022-10-06T04:15:38.371Z,99.90
2022-10-06T04:20:42.141Z,99.90
2022-10-06T04:25:46.205Z,99.90
2022-10-06T04:30:56.733Z,99.90
2022-10-06T04:35:59.850Z,99.90
2022-10-06T04:41:08.539Z,99.90
2022-10-06T04:46:37.532Z,99.90
2022-10-06T04:51:34.386Z,99.90
2022-10-06T04:56:38.419Z,99.90
2022-10-06T05:01:41.154Z,99.90
2022-10-06T05:06:44.171Z,99.90
2022-10-06T05:11:48.358Z,99.90
2022-10-06T05:16:51.480Z,99.90
2022-10-06T05:21:54.249Z,99.90
2022-10-06T05:27:02.133Z,99.90
2022-10-06T05:32:05.767Z,99.90
2022-10-06T05:37:08.558Z,99.90
2022-10-06T05:42:12.611Z,99.90
2022-10-06T05:47:15.352Z,99.90
2022-10-06T05:52:18.082Z,99.90
2022-10-06T05:57:22.129Z,99.90
2022-10-06T06:02:24.891Z,99.90
2022-10-06T06:07:27.726Z,99.90
2022-10-06T06:12:31.846Z,91.50
2022-10-06T06:17:34.737Z,1.00
2022-10-06T06:22:37.854Z,1.00
2022-10-06T06:27:42.076Z,1.00
2022-10-06T06:32:44.887Z,63.00
2022-10-06T06:37:48.819Z,1.00
2022-10-06T06:42:53.935Z,1.00
2022-10-06T06:47:56.919Z,1.00
2022-10-06T06:53:02.480Z,44.20
2022-10-06T06:58:06.623Z,99.90
2022-10-06T07:03:14.172Z,99.90
2022-10-06T07:08:21.029Z,99.90
2022-10-06T07:13:25.866Z,99.90
2022-10-06T07:18:46.239Z,99.90
2022-10-06T07:24:08.879Z,99.90
2022-10-06T07:29:12.995Z,99.90
2022-10-06T07:34:15.750Z,99.90
2022-10-06T07:39:18.520Z,99.90
2022-10-06T07:44:23.062Z,99.90
2022-10-06T07:49:27.199Z,99.90
2022-10-06T07:54:30.398Z,99.90
2022-10-06T07:59:35.599Z,99.90
2022-10-06T08:04:38.439Z,99.90
2022-10-06T08:09:41.188Z,99.90
2022-10-06T08:14:45.274Z,99.90
2022-10-06T08:19:48.800Z,32.60
2022-10-06T08:25:05.366Z,1.00
2022-10-06T08:30:12.409Z,1.00
2022-10-06T08:35:15.181Z,1.00
2022-10-06T08:40:17.932Z,1.00
2022-10-06T08:45:25.294Z,1.00
2022-10-06T08:50:30.258Z,1.00
2022-10-06T08:55:39.582Z,1.00
2022-10-06T09:00:43.803Z,1.00
2022-10-06T09:05:48.207Z,1.00
2022-10-06T09:11:04.580Z,99.90
2022-10-06T09:16:11.588Z,1.00
2022-10-06T09:21:18.482Z,1.00
2022-10-06T09:26:23.564Z,1.00
2022-10-06T09:31:29.423Z,1.00
2022-10-06T09:36:32.573Z,99.90
2022-10-06T09:41:40.692Z,1.00
2022-10-06T09:46:44.734Z,99.90
2022-10-06T09:52:01.903Z,20.90
2022-10-06T09:57:11.466Z,1.00
2022-10-06T10:02:36.848Z,1.00
2022-10-06T10:07:39.843Z,99.90
2022-10-06T10:12:50.519Z,1.00
2022-10-06T10:17:56.941Z,99.90
2022-10-06T10:23:02.349Z,99.90
2022-10-06T10:28:17.984Z,99.90
2022-10-06T10:33:31.087Z,99.90
2022-10-06T10:38:40.861Z,99.90
2022-10-06T10:43:51.066Z,99.90
2022-10-06T10:49:01.393Z,99.90
2022-10-06T10:54:10.200Z,99.90
2022-10-06T10:59:18.883Z,99.90
2022-10-06T11:04:22.978Z,99.90
2022-10-06T11:09:32.128Z,99.90
2022-10-06T11:14:57.398Z,99.90
2022-10-06T11:20:10.345Z,99.90
2022-10-06T11:25:22.565Z,99.90
2022-10-06T11:30:26.526Z,99.90
2022-10-06T11:35:36.013Z,99.90
2022-10-06T11:40:55.529Z,1.00
2022-10-06T11:46:06.541Z,1.00
2022-10-06T11:51:37.713Z,1.00
2022-10-06T11:56:40.951Z,1.00
2022-10-06T12:01:56.062Z,1.00
2022-10-06T12:07:02.091Z,1.00
2022-10-06T12:12:43.978Z,1.00
2022-10-06T12:17:55.040Z,99.90
2022-10-06T12:23:05.508Z,99.90
2022-10-06T12:28:17.960Z,99.90
2022-10-06T12:33:35.135Z,99.90
2022-10-06T12:38:44.395Z,99.90
2022-10-06T12:44:21.857Z,99.90
2022-10-06T12:49:48.811Z,99.90
2022-10-06T12:55:07.245Z,99.90
2022-10-06T13:00:31.170Z,99.90
2022-10-06T13:05:35.879Z,99.90
2022-10-06T13:10:40.032Z,99.90
2022-10-06T13:15:44.484Z,99.90
2022-10-06T13:20:49.123Z,99.90
2022-10-06T13:25:55.621Z,99.90
2022-10-06T13:36:10.400Z,99.90
2022-10-06T13:41:21.851Z,99.90
2022-10-06T13:46:26.941Z,99.90
2022-10-06T13:51:31.603Z,99.90
2022-10-06T13:56:39.406Z,99.90
2022-10-06T14:01:42.552Z,99.90
2022-10-06T14:06:49.646Z,99.90
2022-10-06T14:12:01.605Z,99.90
2022-10-06T14:17:04.793Z,99.90
2022-10-06T14:22:29.753Z,99.90
2022-10-06T14:27:34.210Z,99.90
2022-10-06T14:32:40.070Z,99.90
2022-10-06T14:37:42.774Z,99.90
2022-10-06T14:47:49.507Z,99.90
2022-10-06T14:52:52.236Z,99.90
2022-10-06T14:57:56.710Z,99.90
2022-10-06T15:02:59.562Z,99.90
2022-10-06T15:08:11.764Z,99.90
2022-10-06T15:13:15.827Z,99.90
2022-10-06T15:18:19.107Z,99.90
2022-10-06T15:23:21.891Z,99.90
2022-10-06T15:28:43.737Z,99.90
2022-10-06T15:33:49.798Z,99.90
2022-10-06T15:38:55.634Z,99.90
2022-10-06T15:43:59.860Z,99.90
2022-10-06T15:49:04.555Z,99.90
2022-10-06T15:54:07.346Z,99.90
2022-10-06T15:59:11.698Z,99.90
2022-10-06T16:04:23.108Z,99.90
2022-10-06T16:09:26.936Z,99.90
2022-10-06T16:14:31.363Z,99.90
2022-10-06T16:19:36.638Z,1.00
2022-10-06T16:24:39.502Z,1.00
2022-10-06T16:29:43.584Z,1.00
2022-10-06T16:34:50.268Z,1.00
2022-10-06T16:39:53.068Z,1.00
2022-10-06T16:44:57.146Z,99.90
2022-10-06T16:49:59.888Z,99.90
2022-10-06T16:55:02.913Z,1.00
2022-10-06T17:00:07.918Z,1.00
2022-10-06T17:05:10.623Z,1.00
2022-10-06T17:10:20.542Z,99.90
2022-10-06T17:15:26.179Z,1.00
2022-10-06T17:20:30.852Z,99.90
2022-10-06T17:25:33.796Z,99.90
2022-10-06T17:30:37.838Z,31.50
2022-10-06T17:35:41.590Z,1.00
2022-10-06T17:40:45.032Z,27.70
2022-10-06T17:45:49.396Z,1.00
2022-10-06T17:50:59.551Z,99.90
2022-10-06T17:56:07.414Z,99.90
2022-10-06T18:01:17.583Z,99.90
2022-10-06T18:06:20.844Z,1.00
2022-10-06T18:11:41.585Z,99.90
2022-10-06T18:16:49.835Z,1.00
2022-10-06T18:21:56.664Z,99.90
2022-10-06T18:27:01.377Z,1.00
2022-10-06T18:37:29.926Z,1.00
2022-10-06T18:42:32.671Z,99.90
2022-10-06T18:47:54.233Z,1.00
2022-10-06T18:52:57.229Z,1.00
2022-10-06T18:58:00.596Z,1.00
2022-10-06T19:03:08.015Z,1.00
2022-10-06T19:08:11.867Z,1.00
2022-10-06T19:13:14.663Z,1.00
2022-10-06T19:18:20.282Z,1.00
2022-10-06T19:23:23.090Z,1.00
2022-10-06T19:28:28.483Z,1.00
2022-10-06T19:33:33.635Z,1.00
2022-10-06T19:38:38.651Z,25.30
2022-10-06T19:43:41.531Z,1.00
2022-10-06T19:48:52.729Z,1.00
2022-10-06T19:53:58.706Z,1.00
2022-10-06T19:59:02.148Z,1.00
2022-10-06T20:04:06.618Z,5.20
2022-10-06T20:09:10.626Z,55.30
2022-10-06T20:14:20.759Z,99.90
2022-10-06T20:19:26.122Z,99.90
2022-10-06T20:24:31.114Z,99.90
2022-10-06T20:29:36.569Z,99.90
2022-10-06T20:34:41.802Z,99.90
2022-10-06T20:40:02.167Z,99.90
2022-10-06T20:45:05.683Z,99.90
2022-10-06T20:50:10.991Z,99.90
2022-10-06T20:55:14.543Z,99.90
2022-10-06T21:00:25.570Z,99.90
2022-10-06T21:05:33.119Z,99.90
2022-10-06T21:10:36.105Z,99.90
2022-10-06T21:15:45.592Z,99.90
2022-10-06T21:21:00.610Z,99.90
2022-10-06T21:26:03.723Z,99.90
2022-10-06T21:31:08.703Z,99.90
2022-10-06T21:36:15.441Z,99.90
2022-10-06T21:41:30.447Z,99.90
2022-10-06T21:46:35.568Z,99.90
2022-10-06T21:51:40.719Z,99.90
2022-10-06T21:56:43.855Z,99.90
2022-10-06T22:01:49.783Z,99.90
2022-10-06T22:06:54.100Z,99.90
2022-10-06T22:11:56.970Z,99.90
2022-10-06T22:16:59.815Z,99.90
2022-10-06T22:22:04.140Z,99.90
2022-10-06T22:27:07.002Z,99.90
2022-10-06T22:32:10.131Z,99.90
2022-10-06T22:37:14.354Z,99.90
2022-10-06T22:42:17.209Z,99.90
2022-10-06T22:47:20.247Z,99.90
2022-10-06T22:52:24.865Z,99.90
2022-10-06T22:57:31.540Z,99.90
2022-10-06T23:02:34.354Z,99.90
2022-10-06T23:07:38.558Z,99.90
2022-10-06T23:12:41.468Z,99.90
2022-10-06T23:17:44.919Z,99.90
2022-10-06T23:22:49.303Z,99.90
2022-10-06T23:27:52.127Z,99.90
2022-10-06T23:32:54.954Z,99.90
2022-10-06T23:37:59.161Z,99.90
2022-10-06T23:43:02.061Z,99.90
2022-10-06T23:48:05.036Z,99.90
2022-10-06T23:53:12.156Z,99.90
2022-10-06T23:58:15.545Z,99.90
